createdAt,value
2022-07-31T00:00:38.425Z,16.88
2022-07-31T00:03:06.579Z,16.80
2022-07-31T00:05:41.402Z,16.79
2022-07-31T00:08:10.103Z,16.74
2022-07-31T00:10:38.011Z,16.77
2022-07-31T00:13:07.225Z,16.75
2022-07-31T00:15:35.028Z,16.71
2022-07-31T00:18:02.845Z,16.57
2022-07-31T00:20:30.706Z,16.49
2022-07-31T00:22:58.674Z,16.42
2022-07-31T00:25:26.672Z,16.38
2022-07-31T00:27:54.567Z,16.49
2022-07-31T00:30:23.772Z,16.35
2022-07-31T00:32:52.106Z,16.37
2022-07-31T00:35:20.314Z,16.30
2022-07-31T00:37:48.151Z,16.30
2022-07-31T00:40:17.609Z,16.31
2022-07-31T00:42:46.190Z,16.27
2022-07-31T00:45:14.163Z,16.20
2022-07-31T00:47:44.220Z,16.22
2022-07-31T00:50:13.238Z,16.20
2022-07-31T00:52:42.932Z,16.23
2022-07-31T00:55:11.296Z,16.22
2022-07-31T00:57:39.131Z,16.17
2022-07-31T01:00:08.536Z,16.20
2022-07-31T01:02:38.319Z,16.20
2022-07-31T01:05:18.757Z,16.12
2022-07-31T01:07:46.961Z,16.13
2022-07-31T01:10:24.267Z,16.16
2022-07-31T01:12:56.350Z,16.12
2022-07-31T01:15:26.891Z,15.98
2022-07-31T01:17:57.318Z,16.01
2022-07-31T01:20:27.722Z,16.07
2022-07-31T01:23:27.268Z,15.98
2022-07-31T01:26:21.423Z,15.99
2022-07-31T01:29:10.956Z,16.06
2022-07-31T01:31:44.707Z,16.03
2022-07-31T01:34:25.392Z,15.98
2022-07-31T01:37:04.936Z,15.93
2022-07-31T01:39:37.113Z,16.03
2022-07-31T01:42:08.724Z,16.01
2022-07-31T01:44:44.339Z,15.86
2022-07-31T01:47:18.254Z,15.93
2022-07-31T01:49:48.712Z,15.88
2022-07-31T01:52:19.009Z,15.88
2022-07-31T01:54:48.647Z,15.83
2022-07-31T01:57:18.708Z,15.74
2022-07-31T01:59:54.699Z,15.67
2022-07-31T02:02:43.563Z,15.69
2022-07-31T02:05:12.947Z,15.63
2022-07-31T02:07:42.574Z,15.62
2022-07-31T02:10:13.489Z,15.52
2022-07-31T02:12:42.890Z,15.52
2022-07-31T02:15:15.009Z,15.46
2022-07-31T02:17:47.561Z,15.46
2022-07-31T02:20:25.665Z,15.53
2022-07-31T02:22:56.300Z,15.52
2022-07-31T02:25:24.887Z,15.42
2022-07-31T02:27:57.626Z,15.35
2022-07-31T02:30:38.330Z,15.26
2022-07-31T02:33:11.322Z,15.33
2022-07-31T02:35:44.126Z,15.26
2022-07-31T02:38:22.417Z,15.24
2022-07-31T02:40:52.473Z,15.24
2022-07-31T02:43:21.571Z,15.09
2022-07-31T02:45:50.941Z,15.06
2022-07-31T02:48:19.407Z,15.01
2022-07-31T02:50:50.509Z,15.03
2022-07-31T02:53:18.479Z,14.99
2022-07-31T02:55:47.546Z,15.02
2022-07-31T02:58:15.499Z,15.04
2022-07-31T03:00:46.206Z,15.07
2022-07-31T03:03:16.432Z,15.07
2022-07-31T03:05:44.337Z,15.09
2022-07-31T03:08:12.151Z,15.16
2022-07-31T03:10:43.205Z,15.26
2022-07-31T03:13:12.410Z,15.38
2022-07-31T03:15:41.460Z,15.40
2022-07-31T03:18:21.631Z,15.45
2022-07-31T03:20:51.800Z,15.48
2022-07-31T03:23:23.037Z,15.58
2022-07-31T03:26:00.546Z,15.61
2022-07-31T03:28:29.002Z,15.63
2022-07-31T03:30:57.148Z,15.73
2022-07-31T03:33:30.437Z,15.80
2022-07-31T03:35:59.050Z,15.72
2022-07-31T03:38:38.552Z,15.75
2022-07-31T03:41:10.291Z,15.73
2022-07-31T03:43:46.874Z,15.76
2022-07-31T03:46:17.939Z,15.74
2022-07-31T03:48:47.863Z,15.78
2022-07-31T03:51:16.884Z,15.69
2022-07-31T03:53:45.379Z,15.72
2022-07-31T03:56:33.877Z,15.77
2022-07-31T03:59:02.266Z,15.77
2022-07-31T04:01:58.212Z,15.76
2022-07-31T04:04:29.343Z,15.76
2022-07-31T04:06:59.634Z,15.71
2022-07-31T04:09:29.233Z,15.74
2022-07-31T04:11:57.280Z,15.76
2022-07-31T04:14:25.221Z,15.82
2022-07-31T04:16:53.133Z,15.79
2022-07-31T04:19:20.985Z,15.79
2022-07-31T04:21:51.370Z,15.80
2022-07-31T04:24:20.846Z,15.83
2022-07-31T04:27:10.760Z,15.86
2022-07-31T04:29:43.476Z,15.93
2022-07-31T04:32:11.346Z,15.92
2022-07-31T04:34:45.228Z,15.97
2022-07-31T04:37:14.429Z,15.99
2022-07-31T04:39:42.278Z,16.03
2022-07-31T04:42:11.720Z,16.12
2022-07-31T04:44:39.854Z,16.16
2022-07-31T04:47:08.851Z,16.24
2022-07-31T04:49:42.451Z,16.31
2022-07-31T04:52:13.972Z,16.35
2022-07-31T04:54:44.922Z,16.44
2022-07-31T04:57:19.737Z,16.47
2022-07-31T05:00:00.459Z,16.53
2022-07-31T05:02:34.107Z,16.64
2022-07-31T05:05:02.149Z,16.62
2022-07-31T05:07:37.815Z,16.71
2022-07-31T05:10:31.226Z,16.83
2022-07-31T05:12:59.183Z,16.90
2022-07-31T05:15:27.135Z,16.98
2022-07-31T05:17:56.189Z,17.06
2022-07-31T05:20:43.063Z,17.07
2022-07-31T05:23:30.314Z,17.04
2022-07-31T05:26:30.919Z,17.18
2022-07-31T05:29:00.912Z,17.17
2022-07-31T05:31:28.870Z,17.25
2022-07-31T05:33:59.072Z,17.36
2022-07-31T05:36:27.775Z,17.45
2022-07-31T05:38:57.092Z,17.54
2022-07-31T05:41:56.773Z,17.60
2022-07-31T05:44:36.603Z,17.67
2022-07-31T05:47:08.082Z,17.70
2022-07-31T05:49:35.990Z,17.66
2022-07-31T05:52:04.183Z,17.70
2022-07-31T05:54:33.995Z,17.81
2022-07-31T05:57:33.063Z,17.94
2022-07-31T06:00:04.188Z,18.05
2022-07-31T06:02:39.666Z,18.14
2022-07-31T06:05:13.087Z,18.23
2022-07-31T06:07:41.513Z,18.34
2022-07-31T06:10:20.597Z,18.36
2022-07-31T06:12:48.650Z,18.38
2022-07-31T06:15:16.761Z,18.41
2022-07-31T06:17:45.712Z,18.46
2022-07-31T06:20:27.662Z,18.52
2022-07-31T06:22:56.227Z,18.60
2022-07-31T06:25:31.765Z,18.68
2022-07-31T06:28:02.295Z,18.75
2022-07-31T06:30:33.335Z,18.73
2022-07-31T06:33:01.212Z,18.77
2022-07-31T06:35:37.471Z,18.80
2022-07-31T06:38:24.337Z,18.94
2022-07-31T06:41:33.171Z,18.90
2022-07-31T06:44:21.296Z,18.94
2022-07-31T06:47:07.479Z,19.07
2022-07-31T06:50:02.493Z,19.10
2022-07-31T06:52:35.943Z,19.18
2022-07-31T06:55:04.020Z,19.23
2022-07-31T06:57:33.249Z,19.22
2022-07-31T07:00:04.374Z,19.23
2022-07-31T07:02:36.217Z,19.21
2022-07-31T07:05:06.874Z,19.16
2022-07-31T07:07:36.819Z,19.15
2022-07-31T07:10:07.123Z,19.15
2022-07-31T07:12:58.984Z,19.16
2022-07-31T07:15:28.107Z,19.26
2022-07-31T07:17:56.252Z,19.34
2022-07-31T07:20:35.978Z,19.48
2022-07-31T07:23:03.892Z,19.66
2022-07-31T07:25:44.774Z,19.86
2022-07-31T07:28:30.271Z,19.97
2022-07-31T07:31:00.230Z,20.15
2022-07-31T07:33:41.833Z,20.39
2022-07-31T07:36:23.879Z,20.66
2022-07-31T07:39:03.292Z,20.78
2022-07-31T07:41:33.052Z,20.94
2022-07-31T07:44:04.604Z,21.09
2022-07-31T07:46:32.504Z,21.29
2022-07-31T07:49:05.371Z,21.51
2022-07-31T07:51:36.320Z,21.69
2022-07-31T07:54:24.278Z,21.80
2022-07-31T07:57:15.078Z,21.94
2022-07-31T08:00:00.224Z,21.96
2022-07-31T08:03:47.617Z,22.07
2022-07-31T08:05:41.213Z,22.23
2022-07-31T08:08:10.223Z,22.29
2022-07-31T08:11:04.895Z,22.39
2022-07-31T08:13:55.700Z,22.66
2022-07-31T08:17:03.436Z,22.84
2022-07-31T08:19:31.327Z,22.81
2022-07-31T08:21:59.156Z,22.91
2022-07-31T08:24:28.689Z,22.89
2022-07-31T08:27:13.843Z,22.86
2022-07-31T08:29:43.520Z,22.86
2022-07-31T08:32:19.200Z,22.87
2022-07-31T08:35:13.856Z,22.92
2022-07-31T08:37:50.861Z,22.89
2022-07-31T08:40:31.360Z,22.87
2022-07-31T08:43:01.733Z,22.89
2022-07-31T08:45:30.027Z,23.04
2022-07-31T08:48:10.594Z,23.25
2022-07-31T08:50:52.057Z,23.42
2022-07-31T08:53:50.027Z,23.67
2022-07-31T08:56:21.484Z,23.90
2022-07-31T08:58:49.389Z,24.17
2022-07-31T09:01:17.280Z,24.40
2022-07-31T09:03:47.805Z,24.66
2022-07-31T09:06:16.781Z,24.80
2022-07-31T09:08:44.656Z,24.90
2022-07-31T09:11:14.766Z,24.94
2022-07-31T09:14:01.678Z,24.91
2022-07-31T09:16:50.318Z,25.07
2022-07-31T09:19:52.217Z,25.15
2022-07-31T09:22:23.681Z,25.10
2022-07-31T09:24:51.960Z,25.12
2022-07-31T09:27:20.292Z,25.34
2022-07-31T09:29:49.642Z,25.49
2022-07-31T09:32:46.778Z,25.74
2022-07-31T09:35:23.377Z,25.98
2022-07-31T09:37:51.469Z,26.11
2022-07-31T09:40:42.961Z,26.20
2022-07-31T09:43:59.683Z,26.31
2022-07-31T09:46:28.588Z,26.27
2022-07-31T09:49:00.082Z,26.38
2022-07-31T09:51:39.621Z,26.17
2022-07-31T09:54:09.209Z,26.38
2022-07-31T09:57:13.375Z,26.36
2022-07-31T09:59:46.789Z,26.29
2022-07-31T10:02:16.604Z,26.41
2022-07-31T10:04:48.390Z,26.54
2022-07-31T10:07:24.344Z,26.37
2022-07-31T10:10:05.654Z,26.55
2022-07-31T10:12:55.244Z,26.81
2022-07-31T10:15:25.988Z,26.77
2022-07-31T10:18:21.098Z,26.58
2022-07-31T10:21:38.663Z,26.68
2022-07-31T10:24:23.777Z,26.66
2022-07-31T10:27:01.104Z,26.45
2022-07-31T10:29:32.458Z,26.58
2022-07-31T10:32:02.264Z,26.79
2022-07-31T10:34:31.406Z,26.86
2022-07-31T10:37:14.608Z,27.20
2022-07-31T10:40:07.814Z,27.27
2022-07-31T10:42:47.237Z,27.45
2022-07-31T10:45:17.331Z,27.41
2022-07-31T10:48:17.319Z,27.18
2022-07-31T10:51:03.076Z,26.93
2022-07-31T10:53:58.727Z,26.66
2022-07-31T10:56:48.503Z,26.75
2022-07-31T10:59:36.771Z,26.82
2022-07-31T11:02:30.614Z,26.72
2022-07-31T11:05:28.187Z,26.67
2022-07-31T11:08:09.667Z,26.94
2022-07-31T11:10:52.330Z,26.82
2022-07-31T11:13:56.052Z,26.77
2022-07-31T11:16:51.023Z,26.82
2022-07-31T11:19:41.856Z,27.17
2022-07-31T11:22:32.054Z,27.46
2022-07-31T11:25:01.673Z,27.50
2022-07-31T11:27:32.933Z,27.44
2022-07-31T11:30:12.526Z,27.61
2022-07-31T11:32:41.131Z,27.89
2022-07-31T11:35:09.938Z,28.04
2022-07-31T11:37:56.398Z,28.56
2022-07-31T11:40:27.362Z,29.14
2022-07-31T11:43:24.881Z,29.43
2022-07-31T11:45:51.309Z,29.35
2022-07-31T11:48:20.646Z,29.88
2022-07-31T11:50:49.566Z,29.90
2022-07-31T11:53:18.559Z,30.43
2022-07-31T11:55:51.446Z,30.51
2022-07-31T11:58:20.775Z,30.42
2022-07-31T12:00:51.402Z,30.36
2022-07-31T12:03:20.444Z,30.49
2022-07-31T12:05:49.730Z,30.73
2022-07-31T12:08:18.878Z,30.73
2022-07-31T12:10:46.981Z,30.86
2022-07-31T12:13:16.890Z,31.26
2022-07-31T12:15:57.422Z,31.34
2022-07-31T12:18:26.584Z,31.08
2022-07-31T12:20:56.852Z,31.38
2022-07-31T12:23:41.088Z,31.62
2022-07-31T12:26:13.222Z,31.63
2022-07-31T12:28:41.288Z,31.50
2022-07-31T12:31:11.506Z,31.54
2022-07-31T12:33:43.828Z,31.94
2022-07-31T12:36:15.812Z,32.23
2022-07-31T12:38:47.530Z,32.15
2022-07-31T12:41:17.139Z,32.11
2022-07-31T12:43:51.819Z,31.59
2022-07-31T12:46:37.141Z,31.30
2022-07-31T12:49:06.395Z,30.83
2022-07-31T12:51:45.135Z,30.74
2022-07-31T12:54:17.703Z,31.13
2022-07-31T12:56:48.894Z,30.83
2022-07-31T12:59:16.849Z,30.79
2022-07-31T13:01:46.251Z,31.15
2022-07-31T13:04:18.603Z,31.33
2022-07-31T13:06:51.051Z,31.66
2022-07-31T13:09:18.953Z,31.66
2022-07-31T13:11:53.345Z,32.04
2022-07-31T13:14:25.857Z,32.07
2022-07-31T13:16:56.029Z,32.13
2022-07-31T13:19:23.896Z,32.13
2022-07-31T13:21:51.827Z,32.17
2022-07-31T13:24:21.106Z,32.00
2022-07-31T13:26:49.555Z,31.75
2022-07-31T13:29:17.598Z,31.62
2022-07-31T13:31:46.031Z,31.62
2022-07-31T13:34:15.271Z,31.35
2022-07-31T13:36:43.140Z,30.87
2022-07-31T13:39:12.334Z,30.71
2022-07-31T13:41:41.661Z,30.95
2022-07-31T13:44:10.056Z,31.30
2022-07-31T13:46:38.032Z,30.99
2022-07-31T13:49:08.938Z,30.99
2022-07-31T13:51:38.757Z,30.75
2022-07-31T13:54:07.033Z,30.32
2022-07-31T13:56:41.823Z,29.88
2022-07-31T13:59:12.879Z,29.87
2022-07-31T14:02:03.661Z,30.17
2022-07-31T14:04:32.975Z,30.37
2022-07-31T14:07:09.101Z,30.83
2022-07-31T14:09:37.601Z,31.09
2022-07-31T14:12:06.273Z,31.07
2022-07-31T14:14:34.599Z,31.10
2022-07-31T14:17:02.440Z,31.37
2022-07-31T14:19:30.287Z,31.37
2022-07-31T14:22:11.290Z,31.75
2022-07-31T14:24:40.818Z,31.82
2022-07-31T14:27:08.901Z,31.81
2022-07-31T14:29:36.852Z,31.89
2022-07-31T14:32:04.890Z,31.83
2022-07-31T14:34:35.456Z,31.89
2022-07-31T14:37:04.785Z,31.62
2022-07-31T14:39:35.225Z,31.61
2022-07-31T14:42:12.241Z,31.09
2022-07-31T14:44:41.976Z,30.78
2022-07-31T14:47:10.981Z,30.69
2022-07-31T14:50:09.796Z,30.52
2022-07-31T14:52:27.756Z,30.57
2022-07-31T14:54:59.698Z,30.34
2022-07-31T14:57:27.890Z,30.26
2022-07-31T14:59:55.697Z,30.22
2022-07-31T15:02:23.638Z,30.11
2022-07-31T15:04:52.765Z,29.94
2022-07-31T15:07:39.839Z,30.00
2022-07-31T15:10:11.767Z,29.83
2022-07-31T15:12:40.513Z,29.72
2022-07-31T15:15:17.831Z,29.56
2022-07-31T15:17:45.739Z,29.40
2022-07-31T15:20:14.555Z,29.43
2022-07-31T15:22:45.304Z,29.54
2022-07-31T15:25:14.954Z,29.62
2022-07-31T15:27:42.820Z,29.48
2022-07-31T15:30:11.729Z,29.39
2022-07-31T15:32:40.713Z,29.44
2022-07-31T15:35:10.243Z,29.31
2022-07-31T15:37:39.361Z,29.26
2022-07-31T15:40:09.828Z,29.35
2022-07-31T15:42:41.708Z,29.30
2022-07-31T15:45:11.685Z,29.09
2022-07-31T15:47:40.169Z,28.98
2022-07-31T15:50:10.906Z,28.88
2022-07-31T15:52:39.039Z,28.80
2022-07-31T15:55:08.588Z,28.68
2022-07-31T15:57:36.577Z,28.55
2022-07-31T16:00:07.744Z,28.32
2022-07-31T16:02:39.444Z,28.22
2022-07-31T16:05:11.159Z,28.20
2022-07-31T16:08:31.106Z,28.12
2022-07-31T16:10:29.360Z,28.07
2022-07-31T16:12:57.247Z,27.95
2022-07-31T16:15:26.488Z,28.03
2022-07-31T16:17:54.328Z,27.96
2022-07-31T16:20:26.238Z,28.02
2022-07-31T16:22:56.335Z,28.03
2022-07-31T16:25:26.719Z,28.08
2022-07-31T16:27:54.564Z,28.13
2022-07-31T16:30:23.392Z,28.20
2022-07-31T16:32:52.609Z,28.27
2022-07-31T16:35:20.464Z,28.24
2022-07-31T16:37:51.557Z,28.32
2022-07-31T16:40:28.854Z,28.37
2022-07-31T16:43:00.783Z,28.42
2022-07-31T16:45:29.036Z,28.40
2022-07-31T16:47:58.604Z,28.42
2022-07-31T16:50:26.848Z,28.38
2022-07-31T16:52:55.350Z,28.29
2022-07-31T16:55:59.812Z,28.29
2022-07-31T16:58:14.684Z,28.28
2022-07-31T17:00:42.669Z,28.20
2022-07-31T17:03:59.023Z,28.20
2022-07-31T17:05:59.762Z,28.17
2022-07-31T17:08:28.792Z,28.16
2022-07-31T17:10:56.692Z,28.08
2022-07-31T17:13:24.548Z,28.07
2022-07-31T17:15:52.425Z,27.90
2022-07-31T17:18:25.010Z,27.83
2022-07-31T17:20:56.228Z,27.76
2022-07-31T17:23:44.136Z,27.73
2022-07-31T17:26:21.530Z,27.68
2022-07-31T17:28:50.893Z,27.83
2022-07-31T17:31:19.330Z,28.10
2022-07-31T17:33:59.585Z,28.16
2022-07-31T17:36:29.475Z,28.18
2022-07-31T17:38:57.406Z,28.14
2022-07-31T17:41:26.083Z,28.11
2022-07-31T17:43:54.532Z,28.02
2022-07-31T17:46:34.571Z,27.91
2022-07-31T17:49:08.243Z,27.82
2022-07-31T17:51:36.408Z,27.92
2022-07-31T17:54:04.278Z,28.04
2022-07-31T17:56:32.080Z,28.07
2022-07-31T17:59:04.432Z,27.88
2022-07-31T18:01:33.716Z,27.61
2022-07-31T18:04:02.154Z,27.36
2022-07-31T18:06:31.641Z,27.29
2022-07-31T18:09:00.054Z,27.26
2022-07-31T18:11:28.069Z,27.02
2022-07-31T18:14:03.628Z,26.90
2022-07-31T18:16:32.908Z,26.69
2022-07-31T18:19:00.695Z,26.55
2022-07-31T18:21:28.497Z,26.41
2022-07-31T18:24:00.863Z,26.24
2022-07-31T18:26:31.195Z,26.13
2022-07-31T18:28:58.992Z,26.02
2022-07-31T18:31:32.373Z,25.92
2022-07-31T18:34:03.720Z,25.80
2022-07-31T18:36:31.670Z,25.63
2022-07-31T18:39:01.112Z,25.57
2022-07-31T18:41:29.656Z,25.41
2022-07-31T18:43:58.224Z,25.24
2022-07-31T18:46:26.058Z,25.07
2022-07-31T18:48:55.903Z,24.94
2022-07-31T18:51:24.433Z,24.90
2022-07-31T18:53:54.372Z,24.77
2022-07-31T18:56:24.647Z,24.58
2022-07-31T18:58:53.496Z,24.45
2022-07-31T19:01:21.763Z,24.39
2022-07-31T19:03:49.857Z,24.17
2022-07-31T19:06:18.022Z,24.13
2022-07-31T19:08:46.067Z,24.15
2022-07-31T19:11:13.938Z,24.10
2022-07-31T19:13:43.151Z,24.00
2022-07-31T19:16:11.279Z,23.94
2022-07-31T19:18:40.177Z,23.91
2022-07-31T19:21:23.496Z,23.89
2022-07-31T19:23:57.874Z,23.78
2022-07-31T19:26:25.834Z,23.65
2022-07-31T19:28:55.108Z,23.62
2022-07-31T19:31:22.957Z,23.54
2022-07-31T19:33:50.947Z,23.49
2022-07-31T19:36:18.764Z,23.39
2022-07-31T19:38:46.659Z,23.41
2022-07-31T19:41:15.809Z,23.40
2022-07-31T19:43:44.812Z,23.29
2022-07-31T19:46:14.140Z,23.25
2022-07-31T19:48:42.516Z,23.25
2022-07-31T19:51:10.570Z,23.15
2022-07-31T19:53:38.437Z,23.09
2022-07-31T19:56:06.806Z,23.07
2022-07-31T19:58:35.483Z,22.95
2022-07-31T20:01:03.464Z,22.83
2022-07-31T20:03:33.015Z,22.58
2022-07-31T20:06:01.182Z,22.43
2022-07-31T20:08:32.717Z,22.42
2022-07-31T20:11:03.241Z,22.39
2022-07-31T20:13:32.058Z,22.29
2022-07-31T20:15:59.871Z,22.15
2022-07-31T20:18:29.380Z,22.14
2022-07-31T20:21:00.853Z,22.10
2022-07-31T20:23:30.899Z,22.09
2022-07-31T20:25:59.051Z,21.95
2022-07-31T20:28:27.043Z,21.96
2022-07-31T20:30:54.959Z,21.92
2022-07-31T20:33:22.848Z,21.85
2022-07-31T20:35:50.799Z,21.72
2022-07-31T20:38:20.545Z,21.69
2022-07-31T20:40:54.240Z,21.65
2022-07-31T20:43:23.768Z,21.59
2022-07-31T20:45:52.000Z,21.57
2022-07-31T20:48:21.843Z,21.56
2022-07-31T20:50:49.749Z,21.46
2022-07-31T20:53:17.991Z,21.34
2022-07-31T20:55:49.604Z,21.29
2022-07-31T20:58:17.875Z,21.36
2022-07-31T21:00:47.208Z,21.41
2022-07-31T21:03:15.581Z,21.35
2022-07-31T21:05:43.841Z,21.40
2022-07-31T21:08:12.152Z,21.41
2022-07-31T21:10:40.163Z,21.37
2022-07-31T21:13:10.142Z,21.31
2022-07-31T21:15:43.035Z,21.37
2022-07-31T21:18:12.857Z,21.41
2022-07-31T21:20:52.273Z,21.33
2022-07-31T21:23:22.568Z,21.31
2022-07-31T21:25:51.369Z,21.27
2022-07-31T21:28:22.031Z,21.21
2022-07-31T21:30:50.256Z,21.19
2022-07-31T21:33:18.863Z,21.20
2022-07-31T21:35:47.122Z,21.13
2022-07-31T21:38:16.193Z,21.13
2022-07-31T21:40:44.974Z,21.03
2022-07-31T21:43:16.909Z,20.96
2022-07-31T21:45:57.422Z,20.89
2022-07-31T21:48:30.539Z,20.80
2022-07-31T21:50:59.231Z,20.75
2022-07-31T21:53:27.115Z,20.74
2022-07-31T21:55:54.967Z,20.61
2022-07-31T21:58:22.800Z,20.54
2022-07-31T22:00:52.062Z,20.46
2022-07-31T22:03:20.004Z,20.37
2022-07-31T22:06:05.375Z,20.27
2022-07-31T22:08:33.284Z,20.12
2022-07-31T22:11:01.246Z,20.05
2022-07-31T22:13:29.124Z,20.04
2022-07-31T22:16:00.847Z,19.93
2022-07-31T22:18:33.342Z,19.94
2022-07-31T22:21:03.038Z,19.91
2022-07-31T22:23:31.414Z,19.93
2022-07-31T22:26:01.889Z,19.83
2022-07-31T22:28:29.903Z,19.80
2022-07-31T22:30:59.796Z,19.78
2022-07-31T22:33:27.809Z,19.73
2022-07-31T22:36:02.546Z,19.76
2022-07-31T22:38:31.444Z,19.66
2022-07-31T22:40:59.592Z,19.56
2022-07-31T22:44:11.506Z,19.57
2022-07-31T22:46:17.182Z,19.48
2022-07-31T22:48:46.735Z,19.53
2022-07-31T22:51:15.532Z,19.53
2022-07-31T22:53:43.991Z,19.46
2022-07-31T22:56:12.033Z,19.51
2022-07-31T22:58:39.940Z,19.51
2022-07-31T23:01:07.811Z,19.39
2022-07-31T23:03:37.000Z,19.38
2022-07-31T23:06:30.518Z,19.34
2022-07-31T23:08:54.921Z,19.47
2022-07-31T23:11:24.404Z,19.47
2022-07-31T23:13:52.414Z,19.39
2022-07-31T23:16:21.110Z,19.43
2022-07-31T23:18:51.806Z,19.44
2022-07-31T23:21:20.170Z,19.50
2022-07-31T23:23:49.380Z,19.66
2022-07-31T23:26:18.763Z,19.80
2022-07-31T23:28:47.010Z,19.87
2022-07-31T23:31:15.030Z,19.97
2022-07-31T23:33:43.501Z,20.05
2022-07-31T23:36:12.817Z,20.10
2022-07-31T23:38:40.863Z,20.16
2022-07-31T23:41:09.316Z,20.18
2022-07-31T23:43:36.619Z,20.24
2022-07-31T23:46:05.106Z,20.20
2022-07-31T23:48:33.249Z,20.19
2022-07-31T23:51:01.118Z,20.09
2022-07-31T23:53:30.295Z,19.98
2022-07-31T23:55:58.170Z,19.86
2022-07-31T23:58:25.956Z,19.75
